sensor_id;sensor_type;location;lat;lon;timestamp;pressure;altitude;pressure_sealevel;temperature;humidity
15193;BME280;7697;51.630;7.484;2023-03-14T00:02:39;98338.00;;;13.09;87.49
15193;BME280;7697;51.630;7.484;2023-03-14T00:07:42;98344.63;;;13.07;87.10
15193;BME280;7697;51.630;7.484;2023-03-14T00:12:44;98353.69;;;13.01;87.14
15193;BME280;7697;51.630;7.484;2023-03-14T00:17:47;98329.78;;;13.01;87.39
15193;BME280;7697;51.630;7.484;2023-03-14T00:22:49;98321.56;;;13.02;87.73
15193;BME280;7697;51.630;7.484;2023-03-14T00:27:51;98283.06;;;12.95;87.57
15193;BME280;7697;51.630;7.484;2023-03-14T00:32:54;98277.22;;;12.93;86.86
15193;BME280;7697;51.630;7.484;2023-03-14T00:37:56;98286.78;;;12.89;87.30
15193;BME280;7697;51.630;7.484;2023-03-14T00:42:58;98337.00;;;12.85;87.03
15193;BME280;7697;51.630;7.484;2023-03-14T00:48:01;98350.56;;;12.84;86.58
15193;BME280;7697;51.630;7.484;2023-03-14T00:53:03;98336.75;;;12.76;86.79
15193;BME280;7697;51.630;7.484;2023-03-14T00:58:05;98316.03;;;12.78;86.40
15193;BME280;7697;51.630;7.484;2023-03-14T01:03:09;98297.94;;;12.81;86.52
15193;BME280;7697;51.630;7.484;2023-03-14T01:08:11;98294.78;;;12.84;86.03
15193;BME280;7697;51.630;7.484;2023-03-14T01:13:13;98323.16;;;12.93;86.20
15193;BME280;7697;51.630;7.484;2023-03-14T01:18:18;98349.22;;;12.96;87.86
15193;BME280;7697;51.630;7.484;2023-03-14T01:23:19;98368.63;;;12.66;89.91
15193;BME280;7697;51.630;7.484;2023-03-14T01:28:21;98365.47;;;12.29;92.31
15193;BME280;7697;51.630;7.484;2023-03-14T01:33:24;98335.72;;;11.96;94.04
15193;BME280;7697;51.630;7.484;2023-03-14T01:38:26;98344.41;;;11.72;95.15
15193;BME280;7697;51.630;7.484;2023-03-14T01:43:28;98340.91;;;11.51;96.11
15193;BME280;7697;51.630;7.484;2023-03-14T01:48:35;98334.50;;;11.42;96.83
15193;BME280;7697;51.630;7.484;2023-03-14T01:53:39;98306.63;;;11.24;97.25
15193;BME280;7697;51.630;7.484;2023-03-14T01:58:46;98315.31;;;11.19;97.44
15193;BME280;7697;51.630;7.484;2023-03-14T02:03:54;98301.03;;;11.15;98.19
15193;BME280;7697;51.630;7.484;2023-03-14T02:08:56;98316.13;;;11.15;98.74
15193;BME280;7697;51.630;7.484;2023-03-14T02:13:59;98291.97;;;11.06;99.23
15193;BME280;7697;51.630;7.484;2023-03-14T02:19:02;98286.13;;;11.04;99.70
15193;BME280;7697;51.630;7.484;2023-03-14T02:24:09;98286.38;;;10.98;100.00
15193;BME280;7697;51.630;7.484;2023-03-14T02:29:18;98301.47;;;10.97;100.00
15193;BME280;7697;51.630;7.484;2023-03-14T02:34:20;98288.72;;;10.94;100.00
15193;BME280;7697;51.630;7.484;2023-03-14T02:39:24;98291.69;;;10.98;100.00
15193;BME280;7697;51.630;7.484;2023-03-14T02:44:30;98299.38;;;10.99;100.00
15193;BME280;7697;51.630;7.484;2023-03-14T02:49:33;98304.69;;;11.04;100.00
15193;BME280;7697;51.630;7.484;2023-03-14T02:54:35;98297.22;;;11.01;100.00
15193;BME280;7697;51.630;7.484;2023-03-14T02:59:38;98308.97;;;11.15;99.66
15193;BME280;7697;51.630;7.484;2023-03-14T03:04:40;98291.97;;;11.11;99.76
15193;BME280;7697;51.630;7.484;2023-03-14T03:09:42;98302.88;;;11.20;99.88
15193;BME280;7697;51.630;7.484;2023-03-14T03:14:45;98297.06;;;11.18;100.00
15193;BME280;7697;51.630;7.484;2023-03-14T03:19:46;98278.53;;;11.23;99.88
15193;BME280;7697;51.630;7.484;2023-03-14T03:24:48;98266.53;;;11.10;100.00
15193;BME280;7697;51.630;7.484;2023-03-14T03:29:52;98274.22;;;11.07;100.00
15193;BME280;7697;51.630;7.484;2023-03-14T03:34:53;98264.16;;;11.04;99.85
15193;BME280;7697;51.630;7.484;2023-03-14T03:39:55;98259.09;;;10.97;100.00
15193;BME280;7697;51.630;7.484;2023-03-14T03:44:58;98272.34;;;11.02;100.00
15193;BME280;7697;51.630;7.484;2023-03-14T03:50:00;98289.28;;;11.01;99.89
15193;BME280;7697;51.630;7.484;2023-03-14T03:55:03;98273.69;;;11.00;100.00
15193;BME280;7697;51.630;7.484;2023-03-14T04:00:07;98259.09;;;10.97;99.44
15193;BME280;7697;51.630;7.484;2023-03-14T04:05:12;98263.88;;;11.05;99.68
15193;BME280;7697;51.630;7.484;2023-03-14T04:10:14;98253.81;;;11.02;99.64
15193;BME280;7697;51.630;7.484;2023-03-14T04:15:17;98272.34;;;11.02;99.72
15193;BME280;7697;51.630;7.484;2023-03-14T04:20:20;98279.78;;;11.10;99.55
15193;BME280;7697;51.630;7.484;2023-03-14T04:25:22;98274.53;;;11.15;99.34
15193;BME280;7697;51.630;7.484;2023-03-14T04:30:25;98270.78;;;11.11;99.46
15193;BME280;7697;51.630;7.484;2023-03-14T04:35:27;98250.66;;;11.05;99.63
15193;BME280;7697;51.630;7.484;2023-03-14T04:40:29;98258.88;;;11.09;99.51
15193;BME280;7697;51.630;7.484;2023-03-14T04:45:32;98254.91;;;11.11;99.33
15193;BME280;7697;51.630;7.484;2023-03-14T04:50:33;98243.25;;;11.07;98.93
15193;BME280;7697;51.630;7.484;2023-03-14T04:55:35;98243.75;;;11.04;98.65
15193;BME280;7697;51.630;7.484;2023-03-14T05:00:38;98243.22;;;10.97;98.94
15193;BME280;7697;51.630;7.484;2023-03-14T05:05:40;98234.91;;;10.78;99.37
15193;BME280;7697;51.630;7.484;2023-03-14T05:10:42;98214.44;;;10.59;99.89
15193;BME280;7697;51.630;7.484;2023-03-14T05:15:45;98224.22;;;10.58;100.00
15193;BME280;7697;51.630;7.484;2023-03-14T05:20:50;98231.91;;;10.55;100.00
15193;BME280;7697;51.630;7.484;2023-03-14T05:25:53;98214.31;;;10.38;100.00
15193;BME280;7697;51.630;7.484;2023-03-14T05:30:56;98221.19;;;10.34;100.00
15193;BME280;7697;51.630;7.484;2023-03-14T05:35:58;98214.00;;;10.25;100.00
15193;BME280;7697;51.630;7.484;2023-03-14T05:41:00;98203.56;;;10.13;100.00
15193;BME280;7697;51.630;7.484;2023-03-14T05:46:03;98202.25;;;10.10;100.00
15193;BME280;7697;51.630;7.484;2023-03-14T05:51:05;98202.28;;;10.15;100.00
15193;BME280;7697;51.630;7.484;2023-03-14T05:56:08;98202.53;;;10.14;100.00
15193;BME280;7697;51.630;7.484;2023-03-14T06:01:11;98193.53;;;10.10;100.00
15193;BME280;7697;51.630;7.484;2023-03-14T06:06:13;98186.34;;;10.05;100.00
15193;BME280;7697;51.630;7.484;2023-03-14T06:11:15;98182.91;;;10.05;100.00
15193;BME280;7697;51.630;7.484;2023-03-14T06:16:18;98197.75;;;10.11;100.00
15193;BME280;7697;51.630;7.484;2023-03-14T06:21:19;98196.38;;;10.03;100.00
15193;BME280;7697;51.630;7.484;2023-03-14T06:26:21;98209.09;;;10.11;100.00
15193;BME280;7697;51.630;7.484;2023-03-14T06:31:24;98188.75;;;10.12;100.00
15193;BME280;7697;51.630;7.484;2023-03-14T06:36:26;98187.78;;;10.18;100.00
15193;BME280;7697;51.630;7.484;2023-03-14T06:41:28;98189.91;;;10.21;100.00
15193;BME280;7697;51.630;7.484;2023-03-14T06:46:31;98192.28;;;10.18;100.00
15193;BME280;7697;51.630;7.484;2023-03-14T06:51:33;98191.16;;;10.13;100.00
15193;BME280;7697;51.630;7.484;2023-03-14T06:56:35;98187.25;;;10.21;100.00
15193;BME280;7697;51.630;7.484;2023-03-14T07:01:38;98194.69;;;10.29;100.00
15193;BME280;7697;51.630;7.484;2023-03-14T07:06:40;98197.94;;;10.36;100.00
15193;BME280;7697;51.630;7.484;2023-03-14T07:11:44;98196.91;;;10.47;100.00
15193;BME280;7697;51.630;7.484;2023-03-14T07:16:48;98184.78;;;10.51;100.00
15193;BME280;7697;51.630;7.484;2023-03-14T07:21:49;98186.16;;;10.64;100.00
15193;BME280;7697;51.630;7.484;2023-03-14T07:26:52;98179.03;;;10.75;100.00
15193;BME280;7697;51.630;7.484;2023-03-14T07:31:55;98187.00;;;10.85;100.00
15193;BME280;7697;51.630;7.484;2023-03-14T07:36:57;98190.25;;;10.97;100.00
15193;BME280;7697;51.630;7.484;2023-03-14T07:41:58;98202.47;;;11.13;100.00
15193;BME280;7697;51.630;7.484;2023-03-14T07:47:02;98208.31;;;11.20;100.00
15193;BME280;7697;51.630;7.484;2023-03-14T07:52:03;98197.69;;;11.20;100.00
15193;BME280;7697;51.630;7.484;2023-03-14T07:57:05;98211.25;;;11.34;100.00
15193;BME280;7697;51.630;7.484;2023-03-14T08:02:10;98212.06;;;11.45;100.00
15193;BME280;7697;51.630;7.484;2023-03-14T08:07:12;98206.25;;;11.53;100.00
15193;BME280;7697;51.630;7.484;2023-03-14T08:12:13;98211.53;;;11.58;100.00
15193;BME280;7697;51.630;7.484;2023-03-14T08:17:17;98220.03;;;11.60;100.00
15193;BME280;7697;51.630;7.484;2023-03-14T08:22:19;98220.00;;;11.55;100.00
15193;BME280;7697;51.630;7.484;2023-03-14T08:27:21;98220.81;;;11.55;100.00
15193;BME280;7697;51.630;7.484;2023-03-14T08:32:24;98225.06;;;11.51;100.00
15193;BME280;7697;51.630;7.484;2023-03-14T08:37:26;98221.63;;;11.61;100.00
15193;BME280;7697;51.630;7.484;2023-03-14T08:42:27;98227.44;;;11.58;100.00
15193;BME280;7697;51.630;7.484;2023-03-14T08:47:31;98237.00;;;11.59;100.00
15193;BME280;7697;51.630;7.484;2023-03-14T08:52:33;98233.81;;;11.52;100.00
15193;BME280;7697;51.630;7.484;2023-03-14T08:57:35;98253.16;;;11.57;100.00
15193;BME280;7697;51.630;7.484;2023-03-14T09:02:38;98246.25;;;11.56;100.00
15193;BME280;7697;51.630;7.484;2023-03-14T09:07:40;98242.31;;;11.74;100.00
15193;BME280;7697;51.630;7.484;2023-03-14T09:12:42;98234.38;;;11.84;100.00
15193;BME280;7697;51.630;7.484;2023-03-14T09:17:46;98252.97;;;11.94;100.00
15193;BME280;7697;51.630;7.484;2023-03-14T09:22:48;98237.56;;;11.86;100.00
15193;BME280;7697;51.630;7.484;2023-03-14T09:27:50;98250.03;;;11.91;100.00
15193;BME280;7697;51.630;7.484;2023-03-14T09:32:53;98242.34;;;11.84;100.00
15193;BME280;7697;51.630;7.484;2023-03-14T09:37:54;98258.78;;;11.81;100.00
15193;BME280;7697;51.630;7.484;2023-03-14T09:42:56;98285.03;;;11.78;100.00
15193;BME280;7697;51.630;7.484;2023-03-14T09:48:01;98320.25;;;11.73;100.00
15193;BME280;7697;51.630;7.484;2023-03-14T09:53:08;98347.72;;;11.37;100.00
15193;BME280;7697;51.630;7.484;2023-03-14T09:58:14;98380.13;;;11.02;100.00
15193;BME280;7697;51.630;7.484;2023-03-14T10:03:25;98395.91;;;10.81;100.00
15193;BME280;7697;51.630;7.484;2023-03-14T10:08:28;98405.88;;;10.69;100.00
15193;BME280;7697;51.630;7.484;2023-03-14T10:13:30;98422.72;;;10.58;100.00
15193;BME280;7697;51.630;7.484;2023-03-14T10:18:33;98461.47;;;10.69;100.00
15193;BME280;7697;51.630;7.484;2023-03-14T10:23:37;98482.13;;;10.40;100.00
15193;BME280;7697;51.630;7.484;2023-03-14T10:28:43;98514.28;;;10.27;100.00
15193;BME280;7697;51.630;7.484;2023-03-14T10:33:59;98534.97;;;10.13;100.00
15193;BME280;7697;51.630;7.484;2023-03-14T10:39:22;98567.47;;;10.09;100.00
15193;BME280;7697;51.630;7.484;2023-03-14T10:44:25;98575.91;;;9.89;100.00
15193;BME280;7697;51.630;7.484;2023-03-14T10:49:31;98610.75;;;9.86;100.00
15193;BME280;7697;51.630;7.484;2023-03-14T10:54:33;98627.03;;;9.78;100.00
15193;BME280;7697;51.630;7.484;2023-03-14T10:59:36;98662.63;;;9.70;100.00
15193;BME280;7697;51.630;7.484;2023-03-14T11:04:54;98692.66;;;9.64;100.00
15193;BME280;7697;51.630;7.484;2023-03-14T11:10:03;98742.97;;;9.41;99.39
15193;BME280;7697;51.630;7.484;2023-03-14T11:15:17;98771.72;;;8.97;95.88
15193;BME280;7697;51.630;7.484;2023-03-14T11:20:31;98797.28;;;8.57;97.12
15193;BME280;7697;51.630;7.484;2023-03-14T11:25:38;98818.72;;;8.49;97.92
15193;BME280;7697;51.630;7.484;2023-03-14T11:30:50;98856.09;;;8.46;97.38
15193;BME280;7697;51.630;7.484;2023-03-14T11:35:58;98871.22;;;8.39;94.85
15193;BME280;7697;51.630;7.484;2023-03-14T11:41:04;98909.66;;;8.16;93.98
15193;BME280;7697;51.630;7.484;2023-03-14T11:46:16;98929.63;;;8.12;93.11
15193;BME280;7697;51.630;7.484;2023-03-14T11:51:23;98955.59;;;8.09;92.57
15193;BME280;7697;51.630;7.484;2023-03-14T11:56:32;98957.03;;;7.93;92.10
15193;BME280;7697;51.630;7.484;2023-03-14T12:01:49;98976.31;;;8.05;92.74
15193;BME280;7697;51.630;7.484;2023-03-14T12:06:56;99005.31;;;8.05;91.72
15193;BME280;7697;51.630;7.484;2023-03-14T12:12:00;99000.63;;;8.07;90.73
15193;BME280;7697;51.630;7.484;2023-03-14T12:17:06;98997.16;;;7.95;91.05
15193;BME280;7697;51.630;7.484;2023-03-14T12:22:21;99016.91;;;8.04;93.04
15193;BME280;7697;51.630;7.484;2023-03-14T12:33:32;99053.75;;;8.59;93.57
15193;BME280;7697;51.630;7.484;2023-03-14T12:38:56;99066.66;;;8.67;91.47
15193;BME280;7697;51.630;7.484;2023-03-14T12:49:36;99084.22;;;8.73;89.78
15193;BME280;7697;51.630;7.484;2023-03-14T12:54:43;99120.00;;;8.69;89.38
15193;BME280;7697;51.630;7.484;2023-03-14T12:59:51;99145.44;;;8.27;87.32
15193;BME280;7697;51.630;7.484;2023-03-14T13:05:01;99169.47;;;7.51;93.25
15193;BME280;7697;51.630;7.484;2023-03-14T13:10:21;99188.94;;;7.43;94.51
15193;BME280;7697;51.630;7.484;2023-03-14T13:15:27;99195.34;;;7.54;94.33
15193;BME280;7697;51.630;7.484;2023-03-14T13:20:32;99209.88;;;7.63;94.60
15193;BME280;7697;51.630;7.484;2023-03-14T13:25:37;99216.78;;;7.64;96.02
15193;BME280;7697;51.630;7.484;2023-03-14T13:30:40;99239.25;;;7.91;95.57
15193;BME280;7697;51.630;7.484;2023-03-14T13:35:44;99243.72;;;7.91;94.78
15193;BME280;7697;51.630;7.484;2023-03-14T13:40:48;99234.13;;;7.78;93.72
15193;BME280;7697;51.630;7.484;2023-03-14T13:45:52;99245.94;;;7.69;94.63
15193;BME280;7697;51.630;7.484;2023-03-14T13:50:58;99277.56;;;7.94;96.35
15193;BME280;7697;51.630;7.484;2023-03-14T13:56:08;99285.97;;;8.09;95.85
15193;BME280;7697;51.630;7.484;2023-03-14T14:01:14;99301.63;;;8.29;94.59
15193;BME280;7697;51.630;7.484;2023-03-14T14:06:25;99311.53;;;8.40;94.39
15193;BME280;7697;51.630;7.484;2023-03-14T14:11:37;99331.22;;;8.81;94.27
15193;BME280;7697;51.630;7.484;2023-03-14T14:16:41;99330.41;;;8.80;91.92
15193;BME280;7697;51.630;7.484;2023-03-14T14:21:45;99355.66;;;8.94;90.10
15193;BME280;7697;51.630;7.484;2023-03-14T14:26:51;99363.84;;;8.86;86.96
15193;BME280;7697;51.630;7.484;2023-03-14T14:32:00;99368.09;;;8.87;84.63
15193;BME280;7697;51.630;7.484;2023-03-14T14:37:03;99401.75;;;9.17;80.52
15193;BME280;7697;51.630;7.484;2023-03-14T14:42:14;99392.13;;;9.22;77.82
15193;BME280;7697;51.630;7.484;2023-03-14T14:47:19;99418.84;;;9.32;74.50
15193;BME280;7697;51.630;7.484;2023-03-14T14:52:31;99446.53;;;9.48;73.35
15193;BME280;7697;51.630;7.484;2023-03-14T14:57:38;99449.19;;;9.48;71.68
15193;BME280;7697;51.630;7.484;2023-03-14T15:02:45;99466.38;;;9.57;70.58
15193;BME280;7697;51.630;7.484;2023-03-14T15:07:47;99478.81;;;9.68;70.14
15193;BME280;7697;51.630;7.484;2023-03-14T15:12:50;99490.28;;;9.62;67.77
15193;BME280;7697;51.630;7.484;2023-03-14T15:17:52;99493.53;;;9.64;66.07
15193;BME280;7697;51.630;7.484;2023-03-14T15:22:54;99504.16;;;9.58;68.90
15193;BME280;7697;51.630;7.484;2023-03-14T15:27:57;99508.50;;;9.70;67.62
15193;BME280;7697;51.630;7.484;2023-03-14T15:32:59;99527.69;;;9.66;64.36
15193;BME280;7697;51.630;7.484;2023-03-14T15:38:01;99536.22;;;9.43;62.87
15193;BME280;7697;51.630;7.484;2023-03-14T15:43:04;99543.91;;;9.01;61.79
15193;BME280;7697;51.630;7.484;2023-03-14T15:48:06;99568.13;;;8.92;60.18
15193;BME280;7697;51.630;7.484;2023-03-14T15:53:08;99581.22;;;8.74;62.88
15193;BME280;7697;51.630;7.484;2023-03-14T15:58:15;99572.81;;;8.52;65.95
15193;BME280;7697;51.630;7.484;2023-03-14T16:03:17;99603.66;;;8.58;65.80
15193;BME280;7697;51.630;7.484;2023-03-14T16:08:19;99595.38;;;8.41;66.59
15193;BME280;7697;51.630;7.484;2023-03-14T16:13:22;99618.31;;;8.47;65.04
15193;BME280;7697;51.630;7.484;2023-03-14T16:18:26;99646.50;;;8.53;64.19
15193;BME280;7697;51.630;7.484;2023-03-14T16:23:29;99669.44;;;8.53;62.84
15193;BME280;7697;51.630;7.484;2023-03-14T16:28:32;99685.28;;;8.46;62.80
15193;BME280;7697;51.630;7.484;2023-03-14T16:33:35;99695.03;;;8.33;64.48
15193;BME280;7697;51.630;7.484;2023-03-14T16:38:38;99728.34;;;8.40;60.16
15193;BME280;7697;51.630;7.484;2023-03-14T16:43:42;99735.22;;;8.28;58.47
15193;BME280;7697;51.630;7.484;2023-03-14T16:48:45;99749.03;;;8.10;60.12
15193;BME280;7697;51.630;7.484;2023-03-14T16:53:46;99758.34;;;7.93;60.88
15193;BME280;7697;51.630;7.484;2023-03-14T16:58:50;99768.06;;;7.79;62.65
15193;BME280;7697;51.630;7.484;2023-03-14T17:03:51;99790.75;;;7.74;62.48
15193;BME280;7697;51.630;7.484;2023-03-14T17:08:55;99812.25;;;7.71;62.07
15193;BME280;7697;51.630;7.484;2023-03-14T17:13:58;99818.31;;;7.71;61.92
15193;BME280;7697;51.630;7.484;2023-03-14T17:19:01;99832.69;;;7.56;62.34
15193;BME280;7697;51.630;7.484;2023-03-14T17:24:02;99858.81;;;7.50;63.49
15193;BME280;7697;51.630;7.484;2023-03-14T17:29:06;99854.31;;;7.44;64.22
15193;BME280;7697;51.630;7.484;2023-03-14T17:34:07;99870.28;;;7.36;64.90
15193;BME280;7697;51.630;7.484;2023-03-14T17:39:10;99875.91;;;7.27;65.36
15193;BME280;7697;51.630;7.484;2023-03-14T17:44:13;99879.91;;;7.16;65.91
15193;BME280;7697;51.630;7.484;2023-03-14T17:49:15;99903.66;;;7.23;65.13
15193;BME280;7697;51.630;7.484;2023-03-14T17:54:17;99919.38;;;7.09;66.84
15193;BME280;7697;51.630;7.484;2023-03-14T17:59:20;99926.41;;;7.02;68.35
15193;BME280;7697;51.630;7.484;2023-03-14T18:04:22;99951.53;;;7.05;69.68
15193;BME280;7697;51.630;7.484;2023-03-14T18:09:24;99943.56;;;6.98;71.19
15193;BME280;7697;51.630;7.484;2023-03-14T18:14:27;99971.97;;;7.03;72.16
15193;BME280;7697;51.630;7.484;2023-03-14T18:19:29;99961.72;;;6.87;72.81
15193;BME280;7697;51.630;7.484;2023-03-14T18:24:31;99987.66;;;6.90;73.28
15193;BME280;7697;51.630;7.484;2023-03-14T18:29:34;100002.22;;;6.86;72.88
15193;BME280;7697;51.630;7.484;2023-03-14T18:34:36;100007.19;;;6.81;73.49
15193;BME280;7697;51.630;7.484;2023-03-14T18:39:38;100010.97;;;6.71;73.27
15193;BME280;7697;51.630;7.484;2023-03-14T18:44:42;100025.16;;;6.70;72.97
15193;BME280;7697;51.630;7.484;2023-03-14T18:49:44;100026.63;;;6.58;72.47
15193;BME280;7697;51.630;7.484;2023-03-14T18:54:46;100022.44;;;6.43;71.58
15193;BME280;7697;51.630;7.484;2023-03-14T18:59:49;100045.91;;;6.44;70.61
15193;BME280;7697;51.630;7.484;2023-03-14T19:04:52;100045.41;;;6.34;70.76
15193;BME280;7697;51.630;7.484;2023-03-14T19:09:54;100063.25;;;6.38;70.85
15193;BME280;7697;51.630;7.484;2023-03-14T19:14:57;100058.25;;;6.29;72.43
15193;BME280;7697;51.630;7.484;2023-03-14T19:19:59;100076.03;;;6.42;72.50
15193;BME280;7697;51.630;7.484;2023-03-14T19:25:01;100087.19;;;6.44;73.27
15193;BME280;7697;51.630;7.484;2023-03-14T19:30:06;100094.78;;;6.38;73.38
15193;BME280;7697;51.630;7.484;2023-03-14T19:35:08;100104.78;;;6.28;73.13
15193;BME280;7697;51.630;7.484;2023-03-14T19:40:11;100115.47;;;6.27;74.27
15193;BME280;7697;51.630;7.484;2023-03-14T19:45:15;100125.47;;;6.31;74.69
15193;BME280;7697;51.630;7.484;2023-03-14T19:50:17;100131.81;;;6.22;74.81
15193;BME280;7697;51.630;7.484;2023-03-14T19:55:19;100127.28;;;6.16;75.48
15193;BME280;7697;51.630;7.484;2023-03-14T20:00:23;100149.84;;;6.11;74.25
15193;BME280;7697;51.630;7.484;2023-03-14T20:05:25;100157.00;;;6.02;76.13
15193;BME280;7697;51.630;7.484;2023-03-14T20:10:28;100144.16;;;5.84;75.87
15193;BME280;7697;51.630;7.484;2023-03-14T20:15:32;100156.66;;;5.82;75.52
15193;BME280;7697;51.630;7.484;2023-03-14T20:20:33;100167.72;;;5.78;75.64
15193;BME280;7697;51.630;7.484;2023-03-14T20:25:35;100176.25;;;5.80;76.03
15193;BME280;7697;51.630;7.484;2023-03-14T20:30:41;100184.38;;;5.70;75.45
15193;BME280;7697;51.630;7.484;2023-03-14T20:35:43;100186.00;;;5.71;75.91
15193;BME280;7697;51.630;7.484;2023-03-14T20:40:45;100190.84;;;5.59;75.45
15193;BME280;7697;51.630;7.484;2023-03-14T20:45:52;100207.25;;;5.61;75.90
15193;BME280;7697;51.630;7.484;2023-03-14T20:50:54;100213.41;;;5.54;75.72
15193;BME280;7697;51.630;7.484;2023-03-14T20:55:56;100207.72;;;5.42;76.95
15193;BME280;7697;51.630;7.484;2023-03-14T21:00:59;100213.69;;;5.36;76.82
15193;BME280;7697;51.630;7.484;2023-03-14T21:06:03;100222.56;;;5.35;76.77
15193;BME280;7697;51.630;7.484;2023-03-14T21:11:06;100220.81;;;5.27;76.89
15193;BME280;7697;51.630;7.484;2023-03-14T21:16:09;100219.84;;;5.20;77.39
15193;BME280;7697;51.630;7.484;2023-03-14T21:21:11;100223.34;;;5.13;77.21
15193;BME280;7697;51.630;7.484;2023-03-14T21:26:13;100218.44;;;5.10;77.59
15193;BME280;7697;51.630;7.484;2023-03-14T21:31:16;100227.94;;;5.11;78.46
15193;BME280;7697;51.630;7.484;2023-03-14T21:36:18;100229.41;;;5.13;78.50
15193;BME280;7697;51.630;7.484;2023-03-14T21:41:20;100222.28;;;4.99;78.87
15193;BME280;7697;51.630;7.484;2023-03-14T21:46:24;100222.94;;;4.93;79.00
15193;BME280;7697;51.630;7.484;2023-03-14T21:51:26;100223.13;;;4.83;79.54
15193;BME280;7697;51.630;7.484;2023-03-14T21:56:29;100249.72;;;4.80;80.27
15193;BME280;7697;51.630;7.484;2023-03-14T22:01:33;100246.31;;;4.72;79.69
15193;BME280;7697;51.630;7.484;2023-03-14T22:06:35;100246.53;;;4.62;79.65
15193;BME280;7697;51.630;7.484;2023-03-14T22:11:36;100270.59;;;4.66;80.50
15193;BME280;7697;51.630;7.484;2023-03-14T22:16:40;100258.84;;;4.53;80.60
15193;BME280;7697;51.630;7.484;2023-03-14T22:21:41;100268.69;;;4.43;80.29
15193;BME280;7697;51.630;7.484;2023-03-14T22:26:43;100261.16;;;4.32;80.58
15193;BME280;7697;51.630;7.484;2023-03-14T22:31:47;100281.16;;;4.33;81.33
15193;BME280;7697;51.630;7.484;2023-03-14T22:36:49;100267.41;;;4.23;81.52
15193;BME280;7697;51.630;7.484;2023-03-14T22:41:51;100282.47;;;4.29;82.16
15193;BME280;7697;51.630;7.484;2023-03-14T22:46:54;100289.00;;;4.33;82.38
15193;BME280;7697;51.630;7.484;2023-03-14T22:51:56;100287.19;;;4.42;82.39
15193;BME280;7697;51.630;7.484;2023-03-14T22:56:58;100281.28;;;4.40;82.62
15193;BME280;7697;51.630;7.484;2023-03-14T23:02:01;100285.06;;;4.45;82.21
15193;BME280;7697;51.630;7.484;2023-03-14T23:07:03;100295.72;;;4.52;82.18
15193;BME280;7697;51.630;7.484;2023-03-14T23:12:05;100292.56;;;4.57;82.21
15193;BME280;7697;51.630;7.484;2023-03-14T23:17:08;100306.00;;;4.62;81.71
15193;BME280;7697;51.630;7.484;2023-03-14T23:22:10;100308.78;;;4.68;81.25
15193;BME280;7697;51.630;7.484;2023-03-14T23:27:13;100301.88;;;4.67;80.80
15193;BME280;7697;51.630;7.484;2023-03-14T23:32:16;100308.09;;;4.74;81.02
15193;BME280;7697;51.630;7.484;2023-03-14T23:37:18;100326.28;;;4.84;80.71
15193;BME280;7697;51.630;7.484;2023-03-14T23:42:22;100314.16;;;4.83;81.42
15193;BME280;7697;51.630;7.484;2023-03-14T23:47:26;100318.41;;;4.84;81.10
15193;BME280;7697;51.630;7.484;2023-03-14T23:52:29;100352.81;;;4.97;81.33
15193;BME280;7697;51.630;7.484;2023-03-14T23:57:31;100385.00;;;4.83;84.05
